createdAt,value
2023-01-26T00:00:50.943Z,6.28
2023-01-26T00:03:17.361Z,5.72
2023-01-26T00:05:44.195Z,5.70
2023-01-26T00:08:10.810Z,5.43
2023-01-26T00:10:37.825Z,6.18
2023-01-26T00:13:04.565Z,5.75
2023-01-26T00:15:35.081Z,6.05
2023-01-26T00:18:02.109Z,5.60
2023-01-26T00:20:29.829Z,5.45
2023-01-26T00:22:59.000Z,5.78
2023-01-26T00:25:25.677Z,5.68
2023-01-26T00:27:52.130Z,5.55
2023-01-26T00:30:20.444Z,5.75
2023-01-26T00:32:46.976Z,5.70
2023-01-26T00:35:13.457Z,6.00
2023-01-26T00:37:42.701Z,5.88
2023-01-26T00:40:10.038Z,5.75
2023-01-26T00:42:36.697Z,5.57
2023-01-26T00:45:03.229Z,5.45
2023-01-26T00:47:29.668Z,5.50
2023-01-26T00:49:56.041Z,5.65
2023-01-26T00:52:22.443Z,5.18
2023-01-26T00:54:48.886Z,5.97
2023-01-26T00:57:15.324Z,5.25
2023-01-26T00:59:41.741Z,6.07
2023-01-26T01:02:08.281Z,5.53
2023-01-26T01:04:34.808Z,5.40
2023-01-26T01:07:01.254Z,5.50
2023-01-26T01:09:31.661Z,5.35
2023-01-26T01:11:58.091Z,5.40
2023-01-26T01:14:25.744Z,5.95
2023-01-26T01:16:57.195Z,5.72
2023-01-26T01:19:23.598Z,5.80
2023-01-26T01:21:50.045Z,5.63
2023-01-26T01:24:16.653Z,5.03
2023-01-26T01:26:43.276Z,5.72
2023-01-26T01:29:11.824Z,5.80
2023-01-26T01:31:40.122Z,5.90
2023-01-26T01:34:06.635Z,5.22
2023-01-26T01:36:33.299Z,5.32
2023-01-26T01:39:00.029Z,5.53
2023-01-26T01:41:26.479Z,5.63
2023-01-26T01:44:11.651Z,5.22
2023-01-26T01:46:40.045Z,5.65
2023-01-26T01:49:16.090Z,6.00
2023-01-26T01:51:45.300Z,5.80
2023-01-26T01:54:14.938Z,5.75
2023-01-26T01:56:44.793Z,5.50
2023-01-26T01:59:11.837Z,5.93
2023-01-26T02:01:38.311Z,5.82
2023-01-26T02:04:06.075Z,6.15
2023-01-26T02:06:49.563Z,5.75
2023-01-26T02:09:38.649Z,6.03
2023-01-26T02:12:06.884Z,5.55
2023-01-26T02:14:36.217Z,5.97
2023-01-26T02:17:02.632Z,6.18
2023-01-26T02:19:35.714Z,5.85
2023-01-26T02:22:07.962Z,6.07
2023-01-26T02:24:36.949Z,6.07
2023-01-26T02:27:03.394Z,6.38
2023-01-26T02:29:29.803Z,6.35
2023-01-26T02:31:56.433Z,6.43
2023-01-26T02:34:25.275Z,5.88
2023-01-26T02:36:58.968Z,6.03
2023-01-26T02:39:34.742Z,6.03
2023-01-26T02:42:19.898Z,6.43
2023-01-26T02:44:46.412Z,6.05
2023-01-26T02:47:16.686Z,5.85
2023-01-26T02:49:51.090Z,5.88
2023-01-26T02:52:18.828Z,6.32
2023-01-26T02:55:07.333Z,5.80
2023-01-26T02:57:35.265Z,5.70
2023-01-26T03:00:02.094Z,6.28
2023-01-26T03:02:38.820Z,6.22
2023-01-26T03:05:07.318Z,6.30
2023-01-26T03:07:35.599Z,5.90
2023-01-26T03:10:02.150Z,6.15
2023-01-26T03:12:28.564Z,6.00
2023-01-26T03:15:13.667Z,5.90
2023-01-26T03:17:42.600Z,6.00
2023-01-26T03:20:28.217Z,6.45
2023-01-26T03:23:17.712Z,5.80
2023-01-26T03:26:02.644Z,6.13
2023-01-26T03:28:29.066Z,6.10
2023-01-26T03:30:56.079Z,6.30
2023-01-26T03:33:22.538Z,6.80
2023-01-26T03:35:49.299Z,6.97
2023-01-26T03:38:15.717Z,6.25
2023-01-26T03:41:00.715Z,6.30
2023-01-26T03:43:45.763Z,6.50
2023-01-26T03:46:30.999Z,6.60
2023-01-26T03:49:16.152Z,6.90
2023-01-26T03:52:01.448Z,6.95
2023-01-26T03:54:46.356Z,6.38
2023-01-26T03:57:12.970Z,7.45
2023-01-26T03:59:39.466Z,7.32
2023-01-26T04:02:31.802Z,6.88
2023-01-26T04:05:17.015Z,6.90
2023-01-26T04:08:01.894Z,7.22
2023-01-26T04:10:28.315Z,6.75
2023-01-26T04:13:13.322Z,6.95
2023-01-26T04:15:58.132Z,7.53
2023-01-26T04:18:42.929Z,7.57
2023-01-26T04:21:27.863Z,7.28
2023-01-26T04:23:57.370Z,7.88
2023-01-26T04:26:24.474Z,8.13
2023-01-26T04:28:51.212Z,7.40
2023-01-26T04:31:17.865Z,7.32
2023-01-26T04:33:44.506Z,7.47
2023-01-26T04:36:10.969Z,7.63
2023-01-26T04:38:37.470Z,7.25
2023-01-26T04:41:04.061Z,7.57
2023-01-26T04:43:30.464Z,6.70
2023-01-26T04:46:04.868Z,7.22
2023-01-26T04:48:31.616Z,7.88
2023-01-26T04:51:02.337Z,7.88
2023-01-26T04:53:29.132Z,7.72
2023-01-26T04:55:55.653Z,8.30
2023-01-26T04:58:22.049Z,7.72
2023-01-26T05:00:55.560Z,7.80
2023-01-26T05:03:22.578Z,7.68
2023-01-26T05:05:50.359Z,7.75
2023-01-26T05:08:17.236Z,7.97
2023-01-26T05:10:43.927Z,7.72
2023-01-26T05:13:10.409Z,7.40
2023-01-26T05:15:36.899Z,7.80
2023-01-26T05:18:03.737Z,7.90
2023-01-26T05:20:30.178Z,8.57
2023-01-26T05:22:56.604Z,7.53
2023-01-26T05:25:23.488Z,7.53
2023-01-26T05:27:52.249Z,8.02
2023-01-26T05:30:18.697Z,7.60
2023-01-26T05:32:45.132Z,7.47
2023-01-26T05:35:12.800Z,7.72
2023-01-26T05:37:39.301Z,7.30
2023-01-26T05:40:10.378Z,8.05
2023-01-26T05:42:39.685Z,7.20
2023-01-26T05:45:15.079Z,7.55
2023-01-26T05:47:43.101Z,7.97
2023-01-26T05:50:11.500Z,8.55
2023-01-26T05:52:38.050Z,7.20
2023-01-26T05:55:05.361Z,7.50
2023-01-26T05:57:31.920Z,7.88
2023-01-26T05:59:58.356Z,7.95
2023-01-26T06:02:27.284Z,7.35
2023-01-26T06:04:53.816Z,7.70
2023-01-26T06:07:20.206Z,7.45
2023-01-26T06:09:47.474Z,7.78
2023-01-26T06:12:21.578Z,7.72
2023-01-26T06:14:48.024Z,7.25
2023-01-26T06:17:18.832Z,7.68
2023-01-26T06:19:45.447Z,7.80
2023-01-26T06:22:14.694Z,6.93
2023-01-26T06:24:41.136Z,7.55
2023-01-26T06:27:11.892Z,6.75
2023-01-26T06:29:38.319Z,7.35
2023-01-26T06:32:04.864Z,7.25
2023-01-26T06:34:31.360Z,7.30
2023-01-26T06:36:57.839Z,7.57
2023-01-26T06:39:26.358Z,6.72
2023-01-26T06:41:52.805Z,8.07
2023-01-26T06:44:19.267Z,7.40
2023-01-26T06:46:45.644Z,7.65
2023-01-26T06:49:12.084Z,7.88
2023-01-26T06:51:52.369Z,7.50
2023-01-26T06:54:18.879Z,7.00
2023-01-26T06:56:45.702Z,7.10
2023-01-26T06:59:12.219Z,7.60
2023-01-26T07:01:40.002Z,8.23
2023-01-26T07:04:06.480Z,7.22
2023-01-26T07:06:33.268Z,7.13
2023-01-26T07:08:59.718Z,7.40
2023-01-26T07:11:26.109Z,7.32
2023-01-26T07:13:52.567Z,7.18
2023-01-26T07:16:19.339Z,7.57
2023-01-26T07:18:45.834Z,7.75
2023-01-26T07:21:18.919Z,7.30
2023-01-26T07:23:45.620Z,6.97
2023-01-26T07:26:12.144Z,7.50
2023-01-26T07:28:40.164Z,7.82
2023-01-26T07:31:07.295Z,7.30
2023-01-26T07:33:34.180Z,7.15
2023-01-26T07:36:05.107Z,8.02
2023-01-26T07:38:32.309Z,6.63
2023-01-26T07:40:58.898Z,7.50
2023-01-26T07:43:29.423Z,7.25
2023-01-26T07:45:55.897Z,7.53
2023-01-26T07:48:24.400Z,7.60
2023-01-26T07:50:50.944Z,7.75
2023-01-26T07:53:23.470Z,7.90
2023-01-26T07:55:50.061Z,8.38
2023-01-26T07:58:18.711Z,7.22
2023-01-26T08:00:47.262Z,7.65
2023-01-26T08:03:14.041Z,7.93
2023-01-26T08:05:40.560Z,8.48
2023-01-26T08:08:06.954Z,7.97
2023-01-26T08:10:33.410Z,7.53
2023-01-26T08:13:03.323Z,7.85
2023-01-26T08:15:32.059Z,7.82
2023-01-26T08:17:58.548Z,8.02
2023-01-26T08:20:24.977Z,7.55
2023-01-26T08:22:51.443Z,7.63
2023-01-26T08:25:17.896Z,7.47
2023-01-26T08:27:44.418Z,8.50
2023-01-26T08:30:11.594Z,8.00
2023-01-26T08:32:38.232Z,7.70
2023-01-26T08:35:05.025Z,8.43
2023-01-26T08:37:33.301Z,7.72
2023-01-26T08:39:59.719Z,7.80
2023-01-26T08:42:26.264Z,8.15
2023-01-26T08:44:52.663Z,7.70
2023-01-26T08:47:19.139Z,7.57
2023-01-26T08:49:45.613Z,8.52
2023-01-26T08:52:12.013Z,7.95
2023-01-26T08:54:38.408Z,7.68
2023-01-26T08:57:04.879Z,8.35
2023-01-26T08:59:34.339Z,7.80
2023-01-26T09:02:00.803Z,7.53
2023-01-26T09:04:27.514Z,7.80
2023-01-26T09:06:54.128Z,7.70
2023-01-26T09:09:20.567Z,7.45
2023-01-26T09:11:47.012Z,7.78
2023-01-26T09:14:13.521Z,7.07
2023-01-26T09:16:40.014Z,7.70
2023-01-26T09:19:06.499Z,6.97
2023-01-26T09:21:33.043Z,7.47
2023-01-26T09:23:59.769Z,7.47
2023-01-26T09:26:26.232Z,8.00
2023-01-26T09:28:53.077Z,7.07
2023-01-26T09:31:21.750Z,7.35
2023-01-26T09:33:49.167Z,7.05
2023-01-26T09:36:15.638Z,7.10
2023-01-26T09:38:42.135Z,7.80
2023-01-26T09:41:17.891Z,7.13
2023-01-26T09:43:51.482Z,7.85
2023-01-26T09:46:22.595Z,8.05
2023-01-26T09:48:50.445Z,7.05
2023-01-26T09:51:23.474Z,7.38
2023-01-26T09:53:54.411Z,6.78
2023-01-26T09:56:22.004Z,6.95
2023-01-26T09:59:11.439Z,7.35
2023-01-26T10:01:51.625Z,7.40
2023-01-26T10:04:32.701Z,7.10
2023-01-26T10:07:04.041Z,7.10
2023-01-26T10:09:36.790Z,6.43
2023-01-26T10:12:29.583Z,6.88
2023-01-26T10:17:46.581Z,6.80
2023-01-26T10:20:33.217Z,7.22
2023-01-26T10:23:07.385Z,6.78
2023-01-26T10:25:38.764Z,6.50
2023-01-26T10:28:20.746Z,7.30
2023-01-26T10:30:48.451Z,7.30
2023-01-26T10:33:18.160Z,6.60
2023-01-26T10:35:44.793Z,7.03
2023-01-26T10:38:47.065Z,6.45
2023-01-26T10:41:19.245Z,6.70
2023-01-26T10:43:59.460Z,7.00
2023-01-26T10:46:27.317Z,6.72
2023-01-26T10:48:54.583Z,6.65
2023-01-26T10:51:24.000Z,6.80
2023-01-26T10:53:52.971Z,7.00
2023-01-26T10:56:20.378Z,6.55
2023-01-26T10:58:46.814Z,6.80
2023-01-26T11:01:18.847Z,6.63
2023-01-26T11:04:04.854Z,6.80
2023-01-26T11:06:31.370Z,6.53
2023-01-26T11:09:19.017Z,6.38
2023-01-26T11:12:05.821Z,6.88
2023-01-26T11:14:33.060Z,6.85
2023-01-26T11:17:01.351Z,6.95
2023-01-26T11:19:49.064Z,7.32
2023-01-26T11:22:22.542Z,7.40
2023-01-26T11:25:00.521Z,7.45
2023-01-26T11:27:45.650Z,6.60
2023-01-26T11:30:12.106Z,7.38
2023-01-26T11:32:59.440Z,6.93
2023-01-26T11:35:28.891Z,6.25
2023-01-26T11:38:01.410Z,6.60
2023-01-26T11:40:43.679Z,6.70
2023-01-26T11:43:28.634Z,7.53
2023-01-26T11:46:14.625Z,6.55
2023-01-26T11:48:47.136Z,7.15
2023-01-26T11:51:16.496Z,7.05
2023-01-26T11:53:53.075Z,6.72
2023-01-26T11:56:41.636Z,6.90
2023-01-26T11:59:11.075Z,6.65
2023-01-26T12:01:44.045Z,7.00
2023-01-26T12:04:22.884Z,6.53
2023-01-26T12:10:58.196Z,6.55
2023-01-26T12:13:33.357Z,6.55
2023-01-26T12:16:02.552Z,6.90
2023-01-26T12:18:50.688Z,6.30
2023-01-26T12:21:18.550Z,6.35
2023-01-26T12:23:50.026Z,6.40
2023-01-26T12:26:21.282Z,6.47
2023-01-26T12:28:57.177Z,6.22
2023-01-26T12:31:23.843Z,6.35
2023-01-26T12:33:52.312Z,6.78
2023-01-26T12:36:38.459Z,6.22
2023-01-26T12:39:14.122Z,6.90
2023-01-26T12:41:40.490Z,6.50
2023-01-26T12:44:22.188Z,7.10
2023-01-26T12:46:57.960Z,6.70
2023-01-26T12:49:28.204Z,6.93
2023-01-26T12:52:02.143Z,6.47
2023-01-26T12:54:34.304Z,8.00
2023-01-26T12:57:02.022Z,7.15
2023-01-26T12:59:48.134Z,7.30
2023-01-26T13:02:15.300Z,6.97
2023-01-26T13:04:48.983Z,7.10
2023-01-26T13:07:32.072Z,7.32
2023-01-26T13:10:19.526Z,7.15
2023-01-26T13:12:50.595Z,6.90
2023-01-26T13:15:18.698Z,6.85
2023-01-26T13:17:48.522Z,6.75
2023-01-26T13:20:21.919Z,7.13
2023-01-26T13:22:48.333Z,7.10
2023-01-26T13:25:18.314Z,6.35
2023-01-26T13:27:46.635Z,6.68
2023-01-26T13:30:22.305Z,6.70
2023-01-26T13:32:48.760Z,7.05
2023-01-26T13:35:16.809Z,7.32
2023-01-26T13:37:52.453Z,6.97
2023-01-26T13:40:19.883Z,7.10
2023-01-26T13:43:26.176Z,6.70
2023-01-26T13:46:08.560Z,7.07
2023-01-26T13:48:35.036Z,6.63
2023-01-26T13:51:02.133Z,6.57
2023-01-26T13:53:55.040Z,6.70
2023-01-26T13:56:24.393Z,6.78
2023-01-26T13:58:51.101Z,7.28
2023-01-26T14:01:18.061Z,6.90
2023-01-26T14:03:44.579Z,6.90
2023-01-26T14:06:15.700Z,7.10
2023-01-26T14:08:45.557Z,6.55
2023-01-26T14:11:17.533Z,6.57
2023-01-26T14:13:47.051Z,6.93
2023-01-26T14:16:22.886Z,7.05
2023-01-26T14:18:50.705Z,6.97
2023-01-26T14:21:21.519Z,6.43
2023-01-26T14:23:54.166Z,6.72
2023-01-26T14:26:35.607Z,6.80
2023-01-26T14:29:03.400Z,6.82
2023-01-26T14:31:30.428Z,6.50
2023-01-26T14:33:58.678Z,6.53
2023-01-26T14:36:26.414Z,6.53
2023-01-26T14:38:55.502Z,6.60
2023-01-26T14:41:26.934Z,6.70
2023-01-26T14:43:58.608Z,7.07
2023-01-26T14:46:30.615Z,6.38
2023-01-26T14:49:05.986Z,6.75
2023-01-26T14:51:35.523Z,6.72
2023-01-26T14:54:04.929Z,6.60
2023-01-26T14:56:39.601Z,7.38
2023-01-26T14:59:07.792Z,6.72
2023-01-26T15:01:34.372Z,6.50
2023-01-26T15:04:05.947Z,6.38
2023-01-26T15:06:32.984Z,6.50
2023-01-26T15:09:04.328Z,6.30
2023-01-26T15:11:56.375Z,6.65
2023-01-26T15:14:43.056Z,6.72
2023-01-26T15:17:26.268Z,6.35
2023-01-26T15:19:53.771Z,5.93
2023-01-26T15:22:21.862Z,6.68
2023-01-26T15:24:58.700Z,6.57
2023-01-26T15:27:25.345Z,6.10
2023-01-26T15:29:57.569Z,6.70
2023-01-26T15:32:28.265Z,6.70
2023-01-26T15:35:13.492Z,6.53
2023-01-26T15:37:39.957Z,6.45
2023-01-26T15:40:08.904Z,6.07
2023-01-26T15:42:35.395Z,6.38
2023-01-26T15:45:01.919Z,6.60
2023-01-26T15:47:28.389Z,6.20
2023-01-26T15:49:55.041Z,7.25
2023-01-26T15:52:24.908Z,6.82
2023-01-26T15:54:51.958Z,6.43
2023-01-26T15:57:18.362Z,6.60
2023-01-26T15:59:46.011Z,6.40
2023-01-26T16:02:18.493Z,6.78
2023-01-26T16:04:46.616Z,6.97
2023-01-26T16:07:14.131Z,6.57
2023-01-26T16:09:41.008Z,6.43
2023-01-26T16:12:25.928Z,6.45
2023-01-26T16:14:59.964Z,5.88
2023-01-26T16:17:26.538Z,6.72
2023-01-26T16:19:55.529Z,6.35
2023-01-26T16:22:22.089Z,7.00
2023-01-26T16:24:48.529Z,6.55
2023-01-26T16:27:15.000Z,6.57
2023-01-26T16:29:41.468Z,6.60
2023-01-26T16:32:36.980Z,5.90
2023-01-26T16:35:09.341Z,6.82
2023-01-26T16:40:02.223Z,7.07
2023-01-26T16:42:28.637Z,6.70
2023-01-26T16:44:55.154Z,7.30
2023-01-26T16:47:21.597Z,7.10
2023-01-26T16:49:47.986Z,6.97
2023-01-26T16:52:15.809Z,7.18
2023-01-26T16:54:42.320Z,7.22
2023-01-26T16:57:08.837Z,7.18
2023-01-26T16:59:35.294Z,7.40
2023-01-26T17:02:01.998Z,7.22
2023-01-26T17:04:28.453Z,7.78
2023-01-26T17:06:54.863Z,7.60
2023-01-26T17:09:23.234Z,7.85
2023-01-26T17:11:49.679Z,7.95
2023-01-26T17:14:20.230Z,7.90
2023-01-26T17:16:46.834Z,7.85
2023-01-26T17:19:13.229Z,7.50
2023-01-26T17:21:39.608Z,8.00
2023-01-26T17:24:08.501Z,8.30
2023-01-26T17:26:35.216Z,7.93
2023-01-26T17:29:01.877Z,8.18
2023-01-26T17:31:28.708Z,7.72
2023-01-26T17:33:55.363Z,8.50
2023-01-26T17:36:21.783Z,8.30
2023-01-26T17:38:48.498Z,8.63
2023-01-26T17:41:17.564Z,8.65
2023-01-26T17:43:44.112Z,8.52
2023-01-26T17:46:20.330Z,8.88
2023-01-26T17:48:47.503Z,8.50
2023-01-26T17:51:18.922Z,8.10
2023-01-26T17:53:48.374Z,6.03
2023-01-26T17:56:17.760Z,8.88
2023-01-26T17:58:47.283Z,8.43
2023-01-26T18:01:14.567Z,8.65
2023-01-26T18:03:44.493Z,8.43
2023-01-26T18:06:11.413Z,8.32
2023-01-26T18:08:38.107Z,8.45
2023-01-26T18:11:05.738Z,8.52
2023-01-26T18:13:33.819Z,7.97
2023-01-26T18:16:00.397Z,8.32
2023-01-26T18:18:28.074Z,8.45
2023-01-26T18:20:56.200Z,8.95
2023-01-26T18:23:23.184Z,8.43
2023-01-26T18:25:50.227Z,8.35
2023-01-26T18:28:17.028Z,8.45
2023-01-26T18:30:43.496Z,8.90
2023-01-26T18:33:10.019Z,9.32
2023-01-26T18:35:36.645Z,7.97
2023-01-26T18:38:07.673Z,8.75
2023-01-26T18:40:34.308Z,8.65
2023-01-26T18:43:01.404Z,8.90
2023-01-26T18:45:29.279Z,8.98
2023-01-26T18:50:45.973Z,8.95
2023-01-26T18:53:18.267Z,9.05
2023-01-26T18:58:14.918Z,8.23
2023-01-26T19:00:43.937Z,8.50
2023-01-26T19:03:10.368Z,8.57
2023-01-26T19:05:36.835Z,8.93
2023-01-26T19:08:10.229Z,9.07
2023-01-26T19:10:38.149Z,7.97
2023-01-26T19:13:05.021Z,8.48
2023-01-26T19:15:35.670Z,8.57
2023-01-26T19:18:03.011Z,8.65
2023-01-26T19:20:29.507Z,8.48
2023-01-26T19:22:57.473Z,8.23
2023-01-26T19:25:25.876Z,8.32
2023-01-26T19:27:52.967Z,8.55
2023-01-26T19:30:19.422Z,8.02
2023-01-26T19:33:10.564Z,8.30
2023-01-26T19:35:38.108Z,7.93
2023-01-26T19:38:04.989Z,8.65
2023-01-26T19:40:38.877Z,7.97
2023-01-26T19:43:06.598Z,8.50
2023-01-26T19:45:33.584Z,9.05
2023-01-26T19:48:00.103Z,9.02
2023-01-26T19:50:26.703Z,8.85
2023-01-26T19:52:53.285Z,9.07
2023-01-26T19:55:23.730Z,8.73
2023-01-26T19:57:50.214Z,9.07
2023-01-26T20:00:16.908Z,8.98
2023-01-26T20:02:43.566Z,9.73
2023-01-26T20:05:10.318Z,8.57
2023-01-26T20:07:37.763Z,8.55
2023-01-26T20:10:05.124Z,9.43
2023-01-26T20:12:31.771Z,9.05
2023-01-26T20:15:00.404Z,9.05
2023-01-26T20:17:27.082Z,9.95
2023-01-26T20:19:53.594Z,9.02
2023-01-26T20:22:21.141Z,9.35
2023-01-26T20:24:47.581Z,9.20
2023-01-26T20:27:14.103Z,9.15
2023-01-26T20:29:40.522Z,10.23
2023-01-26T20:32:07.054Z,9.50
2023-01-26T20:34:33.441Z,9.30
2023-01-26T20:37:00.262Z,9.50
2023-01-26T20:39:27.456Z,9.52
2023-01-26T20:41:54.267Z,9.23
2023-01-26T20:44:20.860Z,10.18
2023-01-26T20:46:47.374Z,9.88
2023-01-26T20:49:15.056Z,9.77
2023-01-26T20:51:42.812Z,9.98
2023-01-26T20:54:11.456Z,10.38
2023-01-26T20:56:38.357Z,10.30
2023-01-26T20:59:06.861Z,10.45
2023-01-26T21:01:37.424Z,9.90
2023-01-26T21:04:04.430Z,9.90
2023-01-26T21:06:31.234Z,10.13
2023-01-26T21:08:58.561Z,10.20
2023-01-26T21:11:26.339Z,10.65
2023-01-26T21:13:54.497Z,9.82
2023-01-26T21:16:23.938Z,11.00
2023-01-26T21:18:54.537Z,10.18
2023-01-26T21:21:21.830Z,10.15
2023-01-26T21:23:48.542Z,11.05
2023-01-26T21:26:21.839Z,10.52
2023-01-26T21:28:55.549Z,10.57
2023-01-26T21:31:22.941Z,10.73
2023-01-26T21:33:49.559Z,10.23
2023-01-26T21:36:18.965Z,10.27
2023-01-26T21:38:46.732Z,9.98
2023-01-26T21:44:54.723Z,10.57
2023-01-26T21:47:21.266Z,10.80
2023-01-26T21:49:47.768Z,10.30
2023-01-26T21:52:32.647Z,10.02
2023-01-26T21:54:59.383Z,10.32
2023-01-26T21:57:44.462Z,10.50
2023-01-26T22:00:11.417Z,10.95
2023-01-26T22:02:39.772Z,9.95
2023-01-26T22:05:07.575Z,10.10
2023-01-26T22:07:34.041Z,11.13
2023-01-26T22:10:00.422Z,10.35
2023-01-26T22:12:26.937Z,10.27
2023-01-26T22:14:53.450Z,10.50
2023-01-26T22:17:19.859Z,11.18
2023-01-26T22:19:46.661Z,10.20
2023-01-26T22:22:15.639Z,10.40
2023-01-26T22:24:43.141Z,10.27
2023-01-26T22:27:09.850Z,10.38
2023-01-26T22:29:36.730Z,10.82
2023-01-26T22:32:03.892Z,10.20
2023-01-26T22:34:30.458Z,11.18
2023-01-26T22:36:56.952Z,10.05
2023-01-26T22:39:23.348Z,10.32
2023-01-26T22:41:49.782Z,10.10
2023-01-26T22:44:16.224Z,10.63
2023-01-26T22:46:42.769Z,10.05
2023-01-26T22:49:10.064Z,9.85
2023-01-26T22:51:37.527Z,10.18
2023-01-26T22:54:04.632Z,10.52
2023-01-26T22:56:31.092Z,10.15
2023-01-26T22:59:00.254Z,10.73
2023-01-26T23:01:31.397Z,10.45
2023-01-26T23:03:58.475Z,9.85
2023-01-26T23:06:25.308Z,10.23
2023-01-26T23:08:55.380Z,10.48
2023-01-26T23:11:22.980Z,10.38
2023-01-26T23:13:50.591Z,10.13
2023-01-26T23:16:20.092Z,10.73
2023-01-26T23:18:46.532Z,9.65
2023-01-26T23:21:12.954Z,10.23
2023-01-26T23:23:39.948Z,10.23
2023-01-26T23:26:06.931Z,9.70
2023-01-26T23:28:38.689Z,11.10
2023-01-26T23:31:05.553Z,10.40
2023-01-26T23:33:33.106Z,10.40
2023-01-26T23:35:59.656Z,10.38
2023-01-26T23:38:27.403Z,9.88
2023-01-26T23:40:53.811Z,10.40
2023-01-26T23:43:20.286Z,10.15
2023-01-26T23:45:47.723Z,10.52
2023-01-26T23:48:14.168Z,10.38
2023-01-26T23:50:40.555Z,10.23
2023-01-26T23:53:15.635Z,9.98
2023-01-26T23:55:42.939Z,9.65
2023-01-26T23:58:10.220Z,10.07
